createdAt,value
2023-01-12T00:01:59.422Z,3478.40
2023-01-12T00:04:26.179Z,2717.00
2023-01-12T00:06:53.035Z,3482.00
2023-01-12T00:09:19.761Z,3432.20
2023-01-12T00:11:46.464Z,3845.20
2023-01-12T00:14:13.398Z,3623.80
2023-01-12T00:16:41.995Z,1647.00
2023-01-12T00:19:10.505Z,2699.20
2023-01-12T00:21:38.397Z,3378.20
2023-01-12T00:24:05.403Z,3830.00
2023-01-12T00:26:32.143Z,3726.50
2023-01-12T00:28:58.953Z,3810.00
2023-01-12T00:31:25.690Z,3819.20
2023-01-12T00:33:53.791Z,2251.75
2023-01-12T00:36:20.703Z,3648.60
2023-01-12T00:38:47.573Z,3808.00
2023-01-12T00:41:14.607Z,3737.60
2023-01-12T00:43:41.314Z,3812.00
2023-01-12T00:46:08.273Z,3619.50
2023-01-12T00:48:35.210Z,3812.00
2023-01-12T00:51:04.801Z,3800.40
2023-01-12T00:53:31.516Z,3801.00
2023-01-12T00:56:01.407Z,3774.80
2023-01-12T00:58:28.193Z,3771.50
2023-01-12T01:00:55.064Z,3784.00
2023-01-12T01:03:21.848Z,3776.20
2023-01-12T01:05:48.566Z,3758.75
2023-01-12T01:08:16.645Z,3754.40
2023-01-12T01:10:43.351Z,3729.75
2023-01-12T01:13:10.042Z,3760.00
2023-01-12T01:15:36.796Z,3258.20
2023-01-12T01:18:03.622Z,3754.75
2023-01-12T01:20:30.328Z,3750.75
2023-01-12T01:22:57.008Z,3752.80
2023-01-12T01:25:25.122Z,3750.50
2023-01-12T01:27:51.808Z,3744.60
2023-01-12T01:30:18.513Z,3387.00
2023-01-12T01:32:45.218Z,3744.60
2023-01-12T01:35:11.939Z,3736.60
2023-01-12T01:37:38.615Z,3372.00
2023-01-12T01:40:06.431Z,3736.00
2023-01-12T01:42:34.619Z,1574.40
2023-01-12T01:45:04.614Z,3736.60
2023-01-12T01:47:36.616Z,3093.25
2023-01-12T01:50:10.142Z,3721.75
2023-01-12T01:52:42.298Z,3719.60
2023-01-12T01:55:13.922Z,3628.20
2023-01-12T01:57:45.809Z,2834.00
2023-01-12T02:00:13.560Z,1541.00
2023-01-12T02:02:43.833Z,3695.60
2023-01-12T02:05:12.315Z,3322.80
2023-01-12T02:07:39.171Z,3598.20
2023-01-12T02:10:06.545Z,2111.40
2023-01-12T02:12:33.357Z,3655.00
2023-01-12T02:15:01.557Z,3676.20
2023-01-12T02:17:48.737Z,1169.20
2023-01-12T02:20:54.358Z,2444.20
2023-01-12T02:24:01.080Z,2869.40
2023-01-12T02:27:07.692Z,2952.00
2023-01-12T02:30:30.688Z,1484.20
2023-01-12T02:33:13.068Z,2138.40
2023-01-12T02:35:45.544Z,3023.00
2023-01-12T02:38:23.404Z,798.60
2023-01-12T02:40:56.569Z,1492.80
2023-01-12T02:43:27.831Z,781.60
2023-01-12T02:46:02.204Z,510.75
2023-01-12T02:48:36.696Z,2018.60
2023-01-12T02:51:10.225Z,2636.60
2023-01-12T02:53:41.781Z,1764.60
2023-01-12T02:56:10.378Z,487.40
2023-01-12T02:58:42.724Z,1428.40
2023-01-12T03:01:12.095Z,3160.00
2023-01-12T03:03:41.649Z,1851.75
2023-01-12T03:06:09.194Z,1060.60
2023-01-12T03:08:39.170Z,1834.60
2023-01-12T03:11:11.922Z,47.40
2023-01-12T03:13:43.983Z,1497.20
2023-01-12T03:16:13.301Z,3005.80
2023-01-12T03:18:48.537Z,1770.60
2023-01-12T03:21:24.960Z,1844.40
2023-01-12T03:23:58.158Z,2992.20
2023-01-12T03:26:27.399Z,2795.20
2023-01-12T03:29:02.252Z,3435.00
2023-01-12T03:31:29.093Z,1500.00
2023-01-12T03:33:58.046Z,850.75
2023-01-12T03:36:33.553Z,1263.40
2023-01-12T03:39:07.730Z,1220.50
2023-01-12T03:41:44.221Z,2217.20
2023-01-12T03:44:24.086Z,1159.50
2023-01-12T03:46:55.230Z,2647.00
2023-01-12T03:49:31.843Z,2790.20
2023-01-12T03:52:01.683Z,1420.40
2023-01-12T03:54:30.371Z,1918.60
2023-01-12T03:56:58.078Z,1853.60
2023-01-12T03:59:25.337Z,1349.60
2023-01-12T04:01:52.333Z,2723.00
2023-01-12T04:04:19.208Z,1420.40
2023-01-12T04:06:47.513Z,1129.60
2023-01-12T04:09:14.349Z,2400.00
2023-01-12T04:11:41.126Z,1585.75
2023-01-12T04:14:08.089Z,2053.20
2023-01-12T04:16:34.885Z,2369.80
2023-01-12T04:19:01.684Z,2484.00
2023-01-12T04:21:28.503Z,1756.50
2023-01-12T04:23:56.698Z,1209.40
2023-01-12T04:26:23.667Z,1589.60
2023-01-12T04:28:50.488Z,1564.75
2023-01-12T04:31:17.196Z,2435.60
2023-01-12T04:33:44.167Z,2506.20
2023-01-12T04:36:11.539Z,2135.50
2023-01-12T04:38:40.190Z,947.80
2023-01-12T04:41:08.864Z,2237.20
2023-01-12T04:43:36.141Z,1930.00
2023-01-12T04:46:06.037Z,2841.25
2023-01-12T04:48:32.801Z,426.80
2023-01-12T04:51:00.779Z,2881.60
2023-01-12T04:53:27.696Z,1848.00
2023-01-12T04:55:54.636Z,1995.80
2023-01-12T04:58:23.465Z,797.33
2023-01-12T05:00:50.363Z,2488.50
2023-01-12T05:03:17.397Z,2945.00
2023-01-12T05:05:44.386Z,1500.25
2023-01-12T05:08:11.079Z,1141.50
2023-01-12T05:10:37.871Z,1135.40
2023-01-12T05:13:04.623Z,1164.60
2023-01-12T05:15:32.990Z,2010.00
2023-01-12T05:17:59.748Z,1231.60
2023-01-12T05:20:26.652Z,1728.00
2023-01-12T05:22:53.678Z,1002.60
2023-01-12T05:25:20.336Z,1441.60
2023-01-12T05:27:47.096Z,1300.50
2023-01-12T05:30:14.324Z,1953.00
2023-01-12T05:32:42.524Z,977.25
2023-01-12T05:35:09.751Z,1364.60
2023-01-12T05:37:36.525Z,1165.80
2023-01-12T05:40:03.675Z,2412.00
2023-01-12T05:42:30.398Z,788.60
2023-01-12T05:44:57.170Z,809.50
2023-01-12T05:47:23.949Z,2582.00
2023-01-12T05:49:52.109Z,1331.25
2023-01-12T05:52:18.809Z,2420.40
2023-01-12T05:54:45.508Z,856.40
2023-01-12T05:57:12.241Z,789.00
2023-01-12T05:59:38.985Z,1239.75
2023-01-12T06:02:05.779Z,786.20
2023-01-12T06:04:32.722Z,1295.20
2023-01-12T06:07:01.079Z,135.50
2023-01-12T06:09:28.133Z,1071.60
2023-01-12T06:11:55.585Z,2167.60
2023-01-12T06:14:22.312Z,588.25
2023-01-12T06:16:49.550Z,41.25
2023-01-12T06:19:16.304Z,855.60
2023-01-12T06:21:43.141Z,40.00
2023-01-12T06:24:11.519Z,1463.80
2023-01-12T06:26:38.243Z,1234.00
2023-01-12T06:29:05.083Z,1527.20
2023-01-12T06:31:31.976Z,415.00
2023-01-12T06:33:58.937Z,1882.00
2023-01-12T06:36:25.635Z,354.20
2023-01-12T06:38:52.408Z,1003.40
2023-01-12T06:41:20.531Z,931.20
2023-01-12T06:43:47.295Z,31.75
2023-01-12T06:46:14.047Z,15.25
2023-01-12T06:48:40.845Z,42.00
2023-01-12T06:51:07.539Z,29.75
2023-01-12T06:53:34.331Z,48.20
2023-01-12T06:56:01.053Z,48.67
2023-01-12T06:58:29.254Z,420.67
2023-01-12T07:01:01.019Z,1379.00
2023-01-12T07:03:27.811Z,413.00
2023-01-12T07:05:57.641Z,958.00
2023-01-12T07:08:24.576Z,688.75
2023-01-12T07:10:51.437Z,1448.80
2023-01-12T07:13:18.270Z,1584.20
2023-01-12T07:15:46.567Z,342.60
2023-01-12T07:18:13.257Z,420.20
2023-01-12T07:20:40.080Z,2031.40
2023-01-12T07:23:06.896Z,791.20
2023-01-12T07:25:33.731Z,932.60
2023-01-12T07:28:00.609Z,414.00
2023-01-12T07:30:27.464Z,2325.20
2023-01-12T07:32:55.606Z,2059.00
2023-01-12T07:35:22.340Z,422.00
2023-01-12T07:37:49.932Z,53.25
2023-01-12T07:40:17.363Z,273.00
2023-01-12T07:42:44.128Z,52.25
2023-01-12T07:45:11.781Z,1081.80
2023-01-12T07:47:38.775Z,715.00
2023-01-12T07:50:08.043Z,580.40
2023-01-12T07:52:34.883Z,713.50
2023-01-12T07:55:01.731Z,886.40
2023-01-12T07:57:28.422Z,2259.80
2023-01-12T07:59:55.202Z,788.40
2023-01-12T08:02:22.071Z,1458.60
2023-01-12T08:04:48.876Z,1899.25
2023-01-12T08:07:17.050Z,1454.80
2023-01-12T08:09:43.845Z,2478.80
2023-01-12T08:12:10.537Z,3350.00
2023-01-12T08:14:40.468Z,2129.40
2023-01-12T08:17:11.109Z,1015.00
2023-01-12T08:19:41.918Z,2933.20
2023-01-12T08:22:14.128Z,3656.60
2023-01-12T08:24:48.209Z,1882.00
2023-01-12T08:27:18.803Z,2100.20
2023-01-12T08:29:48.958Z,3016.00
2023-01-12T08:32:16.160Z,2283.80
2023-01-12T08:34:45.501Z,1023.00
2023-01-12T08:37:16.351Z,1527.40
2023-01-12T08:39:46.066Z,867.20
2023-01-12T08:42:13.149Z,2966.00
2023-01-12T08:44:40.193Z,2780.80
2023-01-12T08:47:15.662Z,2330.00
2023-01-12T08:49:42.407Z,2911.40
2023-01-12T08:52:09.192Z,2708.75
2023-01-12T08:54:36.157Z,1884.50
2023-01-12T08:57:04.330Z,2839.60
2023-01-12T08:59:31.110Z,944.80
2023-01-12T09:01:58.040Z,3211.80
2023-01-12T09:04:25.083Z,2037.80
2023-01-12T09:06:51.796Z,1982.20
2023-01-12T09:09:19.569Z,1433.25
2023-01-12T09:11:47.453Z,1707.50
2023-01-12T09:14:16.021Z,1283.40
2023-01-12T09:16:43.276Z,1885.80
2023-01-12T09:19:10.416Z,1824.40
2023-01-12T09:21:38.708Z,1755.00
2023-01-12T09:24:06.355Z,2795.50
2023-01-12T09:26:37.732Z,2593.75
2023-01-12T09:29:04.549Z,660.60
2023-01-12T09:31:33.703Z,2035.75
2023-01-12T09:34:00.562Z,1690.75
2023-01-12T09:36:28.881Z,850.20
2023-01-12T09:38:56.481Z,2446.60
2023-01-12T09:41:26.739Z,2223.00
2023-01-12T09:43:53.483Z,2237.00
2023-01-12T09:46:30.343Z,2713.60
2023-01-12T09:48:58.850Z,1065.00
2023-01-12T09:51:32.186Z,1844.00
2023-01-12T09:53:59.191Z,3565.25
2023-01-12T09:56:29.587Z,2351.60
2023-01-12T09:59:18.661Z,2155.00
2023-01-12T10:01:45.703Z,2230.80
2023-01-12T10:04:14.609Z,1504.40
2023-01-12T10:06:41.883Z,3114.00
2023-01-12T10:09:15.407Z,412.75
2023-01-12T10:11:49.780Z,1202.40
2023-01-12T10:14:27.333Z,1499.80
2023-01-12T10:17:08.002Z,1377.60
2023-01-12T10:19:47.944Z,2463.75
2023-01-12T10:22:21.814Z,1849.40
2023-01-12T10:24:49.459Z,2645.20
2023-01-12T10:27:22.402Z,2115.60
2023-01-12T10:29:49.105Z,679.40
2023-01-12T10:32:15.785Z,2991.20
2023-01-12T10:34:51.227Z,694.60
2023-01-12T10:37:18.049Z,2805.25
2023-01-12T10:39:45.277Z,2485.40
2023-01-12T10:42:21.062Z,221.50
2023-01-12T10:44:56.025Z,818.20
2023-01-12T10:47:22.930Z,30.00
2023-01-12T10:50:18.787Z,1468.00
2023-01-12T10:52:45.996Z,1975.80
2023-01-12T10:55:18.613Z,2115.00
2023-01-12T10:57:48.192Z,614.60
2023-01-12T11:00:21.387Z,1553.80
2023-01-12T11:02:48.950Z,2182.40
2023-01-12T11:05:30.470Z,3153.25
2023-01-12T11:07:58.233Z,1916.00
2023-01-12T11:10:28.394Z,756.40
2023-01-12T11:12:57.355Z,2047.20
2023-01-12T11:15:24.349Z,930.60
2023-01-12T11:18:03.659Z,263.60
2023-01-12T11:20:37.320Z,697.20
2023-01-12T11:23:09.548Z,1968.00
2023-01-12T11:25:41.483Z,766.50
2023-01-12T11:28:17.687Z,546.20
2023-01-12T11:30:49.929Z,469.40
2023-01-12T11:33:20.465Z,479.75
2023-01-12T11:35:54.607Z,41.00
2023-01-12T11:38:26.271Z,388.50
2023-01-12T11:40:55.887Z,1115.33
2023-01-12T11:43:32.554Z,953.80
2023-01-12T11:46:05.571Z,924.25
2023-01-12T11:48:42.212Z,273.40
2023-01-12T11:51:11.317Z,1320.20
2023-01-12T11:53:40.119Z,957.40
2023-01-12T11:56:28.045Z,1730.20
2023-01-12T11:59:03.910Z,31.00
2023-01-12T12:01:41.119Z,1029.80
2023-01-12T12:04:21.515Z,40.25
2023-01-12T12:07:09.087Z,189.80
2023-01-12T12:10:05.035Z,1455.25
2023-01-12T12:12:43.175Z,990.20
2023-01-12T12:15:17.489Z,392.20
2023-01-12T12:17:54.584Z,46.80
2023-01-12T12:20:29.528Z,16.75
2023-01-12T12:23:12.482Z,1281.00
2023-01-12T12:25:51.670Z,398.80
2023-01-12T12:28:39.837Z,39.00
2023-01-12T12:31:36.516Z,367.75
2023-01-12T12:34:25.446Z,35.00
2023-01-12T12:37:02.171Z,43.75
2023-01-12T12:39:36.370Z,38.50
2023-01-12T12:42:18.534Z,732.40
2023-01-12T12:44:59.978Z,467.20
2023-01-12T12:47:59.246Z,753.50
2023-01-12T12:50:31.059Z,35.75
2023-01-12T12:53:13.298Z,1467.40
2023-01-12T12:55:43.366Z,165.33
2023-01-12T12:58:28.965Z,215.00
2023-01-12T13:01:43.027Z,282.50
2023-01-12T13:04:11.480Z,20.00
2023-01-12T13:06:42.582Z,30.00
2023-01-12T13:09:39.795Z,41.75
2023-01-12T13:12:20.778Z,38.25
2023-01-12T13:15:16.719Z,48.75
2023-01-12T13:17:47.476Z,31.00
2023-01-12T13:20:35.820Z,32.00
2023-01-12T13:23:02.684Z,49.00
2023-01-12T13:25:55.685Z,43.50
2023-01-12T13:28:23.964Z,28.75
2023-01-12T13:30:53.085Z,13.00
2023-01-12T13:33:27.629Z,45.67
2023-01-12T13:36:10.542Z,24.25
2023-01-12T13:39:05.813Z,43.75
2023-01-12T13:41:35.813Z,4.75
2023-01-12T13:44:06.173Z,4.50
2023-01-12T13:46:37.522Z,9.00
2023-01-12T13:49:24.836Z,5.00
2023-01-12T13:51:56.476Z,9.75
2023-01-12T13:54:23.365Z,3.00
2023-01-12T13:56:56.708Z,11.00
2023-01-12T13:59:24.845Z,2.00
2023-01-12T14:01:52.574Z,4.67
2023-01-12T14:04:51.351Z,7.67
2023-01-12T14:07:29.784Z,32.75
2023-01-12T14:10:13.694Z,31.50
2023-01-12T14:13:14.775Z,6.75
2023-01-12T14:15:43.900Z,44.00
2023-01-12T14:18:13.417Z,17.75
2023-01-12T14:20:46.127Z,47.00
2023-01-12T14:23:22.403Z,30.75
2023-01-12T14:26:12.492Z,4.33
2023-01-12T14:28:41.767Z,14.00
2023-01-12T14:31:19.290Z,11.00
2023-01-12T14:33:50.247Z,18.25
2023-01-12T14:36:21.777Z,4.75
2023-01-12T14:38:49.835Z,4.00
2023-01-12T14:41:22.821Z,20.00
2023-01-12T14:43:51.931Z,32.50
2023-01-12T14:46:26.463Z,406.33
2023-01-12T14:48:59.498Z,34.75
2023-01-12T14:51:28.072Z,14.00
2023-01-12T14:53:58.733Z,50.67
2023-01-12T14:56:28.583Z,51.75
2023-01-12T14:59:05.979Z,20.00
2023-01-12T15:01:36.615Z,16.25
2023-01-12T15:04:05.139Z,45.33
2023-01-12T15:06:38.199Z,15.25
2023-01-12T15:09:05.596Z,8.75
2023-01-12T15:11:34.379Z,40.00
2023-01-12T15:14:02.672Z,415.00
2023-01-12T15:16:29.703Z,54.50
2023-01-12T15:18:57.969Z,0.50
2023-01-12T15:21:25.737Z,9.75
2023-01-12T15:23:52.493Z,3.75
2023-01-12T15:26:20.312Z,39.25
2023-01-12T15:28:47.565Z,300.33
2023-01-12T15:31:19.432Z,415.00
2023-01-12T15:33:46.232Z,717.00
2023-01-12T15:36:15.078Z,728.75
2023-01-12T15:38:41.851Z,45.00
2023-01-12T15:41:16.556Z,49.33
2023-01-12T15:43:43.370Z,928.50
2023-01-12T15:46:18.518Z,352.00
2023-01-12T15:48:45.200Z,53.00
2023-01-12T15:51:15.597Z,57.25
2023-01-12T15:53:42.391Z,176.33
2023-01-12T15:56:12.443Z,548.67
2023-01-12T15:58:39.151Z,580.67
2023-01-12T16:01:06.070Z,32.00
2023-01-12T16:04:00.581Z,35.33
2023-01-12T16:06:21.454Z,7.25
2023-01-12T16:08:48.197Z,36.75
2023-01-12T16:11:20.202Z,427.00
2023-01-12T16:13:48.157Z,26.25
2023-01-12T16:16:16.196Z,9.50
2023-01-12T16:18:43.281Z,4.00
2023-01-12T16:21:14.934Z,29.33
2023-01-12T16:23:43.302Z,621.25
2023-01-12T16:26:10.114Z,62.67
2023-01-12T16:28:37.061Z,852.00
2023-01-12T16:31:06.097Z,50.00
2023-01-12T16:33:33.125Z,46.33
2023-01-12T16:36:00.059Z,548.33
2023-01-12T16:38:26.883Z,180.33
2023-01-12T16:40:54.999Z,44.67
2023-01-12T16:43:21.991Z,729.33
2023-01-12T16:45:48.786Z,102.00
2023-01-12T16:48:15.604Z,322.75
2023-01-12T16:50:43.137Z,470.33
2023-01-12T16:53:10.484Z,473.50
2023-01-12T16:55:38.291Z,79.75
2023-01-12T16:58:07.291Z,173.00
2023-01-12T17:00:35.716Z,75.25
2023-01-12T17:03:02.983Z,835.20
2023-01-12T17:05:31.455Z,70.75
2023-01-12T17:07:58.240Z,448.25
2023-01-12T17:10:25.130Z,47.50
2023-01-12T17:12:57.123Z,443.33
2023-01-12T17:15:29.614Z,318.33
2023-01-12T17:17:56.462Z,51.00
2023-01-12T17:20:23.312Z,169.33
2023-01-12T17:22:50.772Z,406.75
2023-01-12T17:25:17.835Z,44.00
2023-01-12T17:27:44.608Z,946.67
2023-01-12T17:30:12.102Z,457.50
2023-01-12T17:32:40.757Z,25.00
2023-01-12T17:35:08.227Z,1193.33
2023-01-12T17:37:35.196Z,39.33
2023-01-12T17:40:02.626Z,43.00
2023-01-12T17:42:29.363Z,413.00
2023-01-12T17:44:56.025Z,21.00
2023-01-12T17:47:23.608Z,437.33
2023-01-12T17:49:53.075Z,37.33
2023-01-12T17:52:19.926Z,31.33
2023-01-12T17:54:46.740Z,31.00
2023-01-12T17:57:13.530Z,224.25
2023-01-12T17:59:40.307Z,409.67
2023-01-12T18:02:07.550Z,423.67
2023-01-12T18:04:34.311Z,1117.25
2023-01-12T18:07:02.450Z,29.75
2023-01-12T18:09:29.358Z,629.75
2023-01-12T18:11:56.029Z,37.25
2023-01-12T18:14:22.751Z,36.00
2023-01-12T18:16:49.632Z,18.00
2023-01-12T18:19:16.376Z,30.67
2023-01-12T18:21:43.113Z,40.67
2023-01-12T18:24:11.423Z,413.33
2023-01-12T18:26:38.386Z,21.00
2023-01-12T18:29:06.129Z,35.33
2023-01-12T18:31:34.124Z,372.40
2023-01-12T18:34:01.599Z,425.67
2023-01-12T18:36:28.280Z,462.00
2023-01-12T18:38:55.083Z,39.33
2023-01-12T18:41:23.539Z,416.67
2023-01-12T18:43:50.280Z,410.75
2023-01-12T18:46:17.083Z,29.67
2023-01-12T18:48:44.345Z,130.75
2023-01-12T18:51:11.360Z,47.67
2023-01-12T18:53:38.764Z,27.67
2023-01-12T18:56:06.431Z,34.75
2023-01-12T18:58:35.502Z,18.00
2023-01-12T19:01:03.636Z,751.25
2023-01-12T19:03:30.648Z,430.25
2023-01-12T19:05:57.384Z,1192.00
2023-01-12T19:08:24.081Z,19.33
2023-01-12T19:10:50.902Z,21.75
2023-01-12T19:13:17.631Z,42.00
2023-01-12T19:15:45.977Z,529.00
2023-01-12T19:18:12.749Z,410.75
2023-01-12T19:20:39.607Z,234.50
2023-01-12T19:23:06.339Z,290.67
2023-01-12T19:25:33.024Z,34.33
2023-01-12T19:27:59.867Z,51.67
2023-01-12T19:30:26.648Z,16.33
2023-01-12T19:32:54.830Z,47.75
2023-01-12T19:35:21.618Z,47.00
2023-01-12T19:37:48.982Z,408.75
2023-01-12T19:40:16.627Z,35.25
2023-01-12T19:42:43.309Z,44.33
2023-01-12T19:45:10.434Z,42.00
2023-01-12T19:47:38.978Z,44.67
2023-01-12T19:50:09.129Z,1139.75
2023-01-12T19:52:35.971Z,816.33
2023-01-12T19:55:03.881Z,1007.60
2023-01-12T19:57:30.954Z,1304.80
2023-01-12T19:59:57.704Z,25.00
2023-01-12T20:02:24.849Z,697.75
2023-01-12T20:04:51.716Z,34.50
2023-01-12T20:07:20.098Z,33.00
2023-01-12T20:09:46.912Z,37.00
2023-01-12T20:12:13.976Z,9.50
2023-01-12T20:14:40.741Z,51.60
2023-01-12T20:17:07.676Z,1192.00
2023-01-12T20:19:34.755Z,419.33
2023-01-12T20:22:01.959Z,425.33
2023-01-12T20:24:30.332Z,22.33
2023-01-12T20:26:57.032Z,23.00
2023-01-12T20:29:23.834Z,42.33
2023-01-12T20:31:50.892Z,1.67
2023-01-12T20:34:18.432Z,57.67
2023-01-12T20:36:47.688Z,15.50
2023-01-12T20:39:15.293Z,44.33
2023-01-12T20:41:43.447Z,39.00
2023-01-12T20:44:14.830Z,293.67
2023-01-12T20:46:42.314Z,48.50
2023-01-12T20:49:09.613Z,15.33
2023-01-12T20:51:36.580Z,325.00
2023-01-12T20:54:04.892Z,1730.00
2023-01-12T20:56:31.993Z,1018.75
2023-01-12T20:59:00.403Z,409.00
2023-01-12T21:01:27.880Z,31.33
2023-01-12T21:03:54.750Z,32.00
2023-01-12T21:06:21.504Z,29.00
2023-01-12T21:08:48.299Z,417.33
2023-01-12T21:11:16.864Z,37.00
2023-01-12T21:13:44.040Z,299.67
2023-01-12T21:16:14.259Z,55.33
2023-01-12T21:18:41.291Z,629.00
2023-01-12T21:21:08.072Z,111.00
2023-01-12T21:23:34.936Z,628.00
2023-01-12T21:26:01.778Z,612.20
2023-01-12T21:28:30.274Z,739.00
2023-01-12T21:31:00.188Z,60.75
2023-01-12T21:33:28.755Z,929.40
2023-01-12T21:35:55.897Z,354.80
2023-01-12T21:38:23.675Z,746.50
2023-01-12T21:40:50.640Z,57.75
2023-01-12T21:43:17.456Z,719.20
2023-01-12T21:45:45.649Z,101.33
2023-01-12T21:48:13.876Z,455.50
2023-01-12T21:50:42.688Z,901.00
2023-01-12T21:53:14.082Z,831.25
2023-01-12T21:55:41.867Z,1539.60
2023-01-12T21:58:08.577Z,1213.50
2023-01-12T22:00:35.407Z,54.00
2023-01-12T22:03:02.157Z,59.00
2023-01-12T22:05:29.165Z,169.75
2023-01-12T22:07:57.276Z,70.33
2023-01-12T22:10:23.985Z,108.75
2023-01-12T22:12:52.338Z,459.75
2023-01-12T22:15:19.251Z,359.25
2023-01-12T22:17:46.119Z,965.00
2023-01-12T22:20:14.123Z,736.80
2023-01-12T22:22:40.852Z,369.00
2023-01-12T22:25:11.189Z,342.20
2023-01-12T22:27:38.829Z,1025.40
2023-01-12T22:30:07.056Z,830.75
2023-01-12T22:32:33.796Z,546.00
2023-01-12T22:35:00.502Z,2131.40
2023-01-12T22:37:28.109Z,451.40
2023-01-12T22:39:55.513Z,452.50
2023-01-12T22:42:23.908Z,196.50
2023-01-12T22:44:50.850Z,595.33
2023-01-12T22:47:17.512Z,364.75
2023-01-12T22:49:44.216Z,65.50
2023-01-12T22:52:11.357Z,420.50
2023-01-12T22:54:38.035Z,56.75
2023-01-12T22:57:04.792Z,442.00
2023-01-12T22:59:32.953Z,513.00
2023-01-12T23:01:59.663Z,823.67
2023-01-12T23:04:26.347Z,87.75
2023-01-12T23:06:53.048Z,283.80
2023-01-12T23:09:19.747Z,172.00
2023-01-12T23:11:46.414Z,151.80
2023-01-12T23:14:13.081Z,527.60
2023-01-12T23:16:41.119Z,828.50
2023-01-12T23:19:08.590Z,66.75
2023-01-12T23:21:35.277Z,74.50
2023-01-12T23:24:01.971Z,1427.80
2023-01-12T23:26:30.538Z,1026.80
2023-01-12T23:28:59.252Z,1077.20
2023-01-12T23:31:28.417Z,1265.00
2023-01-12T23:33:56.747Z,812.50
2023-01-12T23:36:25.320Z,704.60
2023-01-12T23:38:53.377Z,345.25
2023-01-12T23:41:21.944Z,944.00
2023-01-12T23:43:50.584Z,840.75
2023-01-12T23:46:18.441Z,842.60
2023-01-12T23:48:45.127Z,1142.40
2023-01-12T23:51:13.347Z,398.33
2023-01-12T23:53:40.019Z,32.00
2023-01-12T23:56:09.216Z,420.50
2023-01-12T23:58:36.323Z,37.67
